createdAt,value
2017-12-30T00:01:22.990Z,5.01
2017-12-30T00:03:50.599Z,4.97
2017-12-30T00:06:18.383Z,4.93
2017-12-30T00:08:45.997Z,4.87
2017-12-30T00:11:13.562Z,4.88
2017-12-30T00:13:41.112Z,4.93
2017-12-30T00:16:08.710Z,4.96
2017-12-30T00:18:36.274Z,4.94
2017-12-30T00:21:03.963Z,4.92
2017-12-30T00:23:31.707Z,4.90
2017-12-30T00:25:59.270Z,4.86
2017-12-30T00:28:26.934Z,4.79
2017-12-30T00:30:54.523Z,4.83
2017-12-30T00:33:22.380Z,4.90
2017-12-30T00:35:49.937Z,4.97
2017-12-30T00:38:17.594Z,5.06
2017-12-30T00:40:45.234Z,5.04
2017-12-30T00:43:12.786Z,4.99
2017-12-30T00:45:40.423Z,5.04
2017-12-30T00:48:07.978Z,5.08
2017-12-30T00:50:35.587Z,5.04
2017-12-30T00:53:03.139Z,5.09
2017-12-30T00:55:30.704Z,5.06
2017-12-30T00:57:58.519Z,5.06
2017-12-30T01:00:26.074Z,5.08
2017-12-30T01:02:53.794Z,5.05
2017-12-30T01:05:21.612Z,4.96
2017-12-30T01:07:49.221Z,5.03
2017-12-30T01:10:16.834Z,5.06
2017-12-30T01:12:44.453Z,5.06
2017-12-30T01:15:12.076Z,5.08
2017-12-30T01:17:39.642Z,5.02
2017-12-30T01:20:07.202Z,4.99
2017-12-30T01:22:34.836Z,5.04
2017-12-30T01:25:02.394Z,5.02
2017-12-30T01:27:29.965Z,4.99
2017-12-30T01:29:57.546Z,4.96
2017-12-30T01:32:25.110Z,4.95
2017-12-30T01:34:53.027Z,4.93
2017-12-30T01:37:20.587Z,4.93
2017-12-30T01:39:48.363Z,4.86
2017-12-30T01:42:15.945Z,4.85
2017-12-30T01:44:43.699Z,4.78
2017-12-30T01:47:11.490Z,4.81
2017-12-30T01:49:39.074Z,4.75
2017-12-30T01:52:06.630Z,4.73
2017-12-30T01:54:34.202Z,4.66
2017-12-30T01:57:01.991Z,4.60
2017-12-30T01:59:29.807Z,4.59
2017-12-30T02:01:57.382Z,4.54
2017-12-30T02:04:25.043Z,4.51
2017-12-30T02:06:52.761Z,4.45
2017-12-30T02:09:20.323Z,4.47
2017-12-30T02:11:47.946Z,4.50
2017-12-30T02:14:15.506Z,4.51
2017-12-30T02:16:43.233Z,4.54
2017-12-30T02:19:10.814Z,4.61
2017-12-30T02:21:38.542Z,4.66
2017-12-30T02:24:06.394Z,4.67
2017-12-30T02:26:34.013Z,4.64
2017-12-30T02:29:01.567Z,4.63
2017-12-30T02:31:29.134Z,4.51
2017-12-30T02:33:56.858Z,4.50
2017-12-30T02:36:24.678Z,4.54
2017-12-30T02:38:52.225Z,4.48
2017-12-30T02:41:19.788Z,4.51
2017-12-30T02:43:47.349Z,4.54
2017-12-30T02:46:14.909Z,4.52
2017-12-30T02:48:42.530Z,4.51
2017-12-30T02:51:10.077Z,4.53
2017-12-30T02:53:37.633Z,4.51
2017-12-30T02:56:05.419Z,4.47
2017-12-30T02:58:32.978Z,4.49
2017-12-30T03:01:00.594Z,4.49
2017-12-30T03:03:28.342Z,4.49
2017-12-30T03:05:55.882Z,4.53
2017-12-30T03:08:23.633Z,4.54
2017-12-30T03:10:51.186Z,4.52
2017-12-30T03:13:18.832Z,4.51
2017-12-30T03:15:46.405Z,4.52
2017-12-30T03:18:14.181Z,4.48
2017-12-30T03:20:41.899Z,4.54
2017-12-30T03:23:09.556Z,4.53
2017-12-30T03:25:37.187Z,4.57
2017-12-30T03:28:04.740Z,4.59
2017-12-30T03:30:32.301Z,4.66
2017-12-30T03:32:59.933Z,4.71
2017-12-30T03:35:27.492Z,4.67
2017-12-30T03:37:55.325Z,4.66
2017-12-30T03:40:23.010Z,4.65
2017-12-30T03:42:50.573Z,4.66
2017-12-30T03:45:18.287Z,4.67
2017-12-30T03:47:45.842Z,4.66
2017-12-30T03:50:13.617Z,4.81
2017-12-30T03:52:41.173Z,4.74
2017-12-30T03:55:08.909Z,4.71
2017-12-30T03:57:36.669Z,4.60
2017-12-30T04:00:04.298Z,4.56
2017-12-30T04:02:32.056Z,4.69
2017-12-30T04:04:59.605Z,4.62
2017-12-30T04:07:27.153Z,4.64
2017-12-30T04:09:54.725Z,4.60
2017-12-30T04:12:22.281Z,4.55
2017-12-30T04:14:49.900Z,4.61
2017-12-30T04:17:17.712Z,4.61
2017-12-30T04:19:45.272Z,4.55
2017-12-30T04:22:12.848Z,4.49
2017-12-30T04:24:40.409Z,4.46
2017-12-30T04:27:08.029Z,4.45
2017-12-30T04:29:35.582Z,4.46
2017-12-30T04:32:03.137Z,4.46
2017-12-30T04:34:30.940Z,4.53
2017-12-30T04:36:58.633Z,4.58
2017-12-30T04:39:26.473Z,4.61
2017-12-30T04:41:54.036Z,4.65
2017-12-30T04:44:21.810Z,4.64
2017-12-30T04:46:49.629Z,4.61
2017-12-30T04:49:17.322Z,4.53
2017-12-30T04:51:45.133Z,4.62
2017-12-30T04:54:12.847Z,4.63
2017-12-30T04:56:40.394Z,4.60
2017-12-30T04:59:08.120Z,4.59
2017-12-30T05:01:35.680Z,4.59
2017-12-30T05:04:03.297Z,4.56
2017-12-30T05:06:30.872Z,4.59
2017-12-30T05:08:58.434Z,4.61
2017-12-30T05:11:26.039Z,4.56
2017-12-30T05:13:53.826Z,4.47
2017-12-30T05:16:21.450Z,4.50
2017-12-30T05:18:48.988Z,4.47
2017-12-30T05:21:16.779Z,4.50
2017-12-30T05:23:44.379Z,4.47
2017-12-30T05:26:11.942Z,4.42
2017-12-30T05:28:39.547Z,4.40
2017-12-30T05:31:07.251Z,4.33
2017-12-30T05:33:34.822Z,4.29
2017-12-30T05:36:02.518Z,4.26
2017-12-30T05:38:30.188Z,4.24
2017-12-30T05:40:58.024Z,4.25
2017-12-30T05:43:25.581Z,4.20
2017-12-30T05:45:53.141Z,4.20
2017-12-30T05:48:20.758Z,4.19
2017-12-30T05:50:48.495Z,4.24
2017-12-30T05:53:16.117Z,4.19
2017-12-30T05:55:43.928Z,4.21
2017-12-30T05:58:11.492Z,4.18
2017-12-30T06:00:39.062Z,4.18
2017-12-30T06:03:06.785Z,4.16
2017-12-30T06:05:34.567Z,4.09
2017-12-30T06:08:02.190Z,4.15
2017-12-30T06:10:29.727Z,4.14
2017-12-30T06:12:57.301Z,4.12
2017-12-30T06:15:24.857Z,4.17
2017-12-30T06:17:52.694Z,4.22
2017-12-30T06:20:20.249Z,4.22
2017-12-30T06:22:47.806Z,4.26
2017-12-30T06:25:15.547Z,4.16
2017-12-30T06:27:43.201Z,4.16
2017-12-30T06:30:11.084Z,4.19
2017-12-30T06:32:38.634Z,4.17
2017-12-30T06:35:06.253Z,4.09
2017-12-30T06:37:33.822Z,4.05
2017-12-30T06:40:01.657Z,4.16
2017-12-30T06:42:29.474Z,4.17
2017-12-30T06:44:57.028Z,4.27
2017-12-30T06:47:24.810Z,4.30
2017-12-30T06:49:52.628Z,4.26
2017-12-30T06:52:20.350Z,4.30
2017-12-30T06:54:48.266Z,4.35
2017-12-30T06:57:15.984Z,4.37
2017-12-30T06:59:43.694Z,4.38
2017-12-30T07:02:11.489Z,4.47
2017-12-30T07:04:39.042Z,4.49
2017-12-30T07:07:06.677Z,4.51
2017-12-30T07:09:34.242Z,4.43
2017-12-30T07:12:01.794Z,4.39
2017-12-30T07:14:29.611Z,4.36
2017-12-30T07:16:57.328Z,4.43
2017-12-30T07:19:25.146Z,4.45
2017-12-30T07:21:52.705Z,4.43
2017-12-30T07:24:20.483Z,4.47
2017-12-30T07:26:48.094Z,4.47
2017-12-30T07:29:15.819Z,4.49
2017-12-30T07:31:43.579Z,4.49
2017-12-30T07:34:11.135Z,4.51
2017-12-30T07:36:38.698Z,4.52
2017-12-30T07:39:06.252Z,4.62
2017-12-30T07:41:33.801Z,4.68
2017-12-30T07:44:01.713Z,4.66
2017-12-30T07:46:29.321Z,4.72
2017-12-30T07:48:57.129Z,4.72
2017-12-30T07:51:24.882Z,4.70
2017-12-30T07:53:52.478Z,4.79
2017-12-30T07:56:20.103Z,4.91
2017-12-30T07:58:47.727Z,4.94
2017-12-30T08:01:15.453Z,4.94
2017-12-30T08:03:43.049Z,4.94
2017-12-30T08:06:10.601Z,5.00
2017-12-30T08:08:38.217Z,5.08
2017-12-30T08:11:05.806Z,5.08
2017-12-30T08:13:33.358Z,5.16
2017-12-30T08:16:00.938Z,5.13
2017-12-30T08:18:28.497Z,5.29
2017-12-30T08:20:56.187Z,5.46
2017-12-30T08:23:23.751Z,5.68
2017-12-30T08:25:51.532Z,5.70
2017-12-30T08:28:19.106Z,5.73
2017-12-30T08:30:46.670Z,5.84
2017-12-30T08:33:14.486Z,6.00
2017-12-30T08:35:42.042Z,6.04
2017-12-30T08:38:09.822Z,6.20
2017-12-30T08:40:37.420Z,6.36
2017-12-30T08:43:05.045Z,6.51
2017-12-30T08:45:32.767Z,6.27
2017-12-30T08:48:00.506Z,6.03
2017-12-30T08:50:28.076Z,5.86
2017-12-30T08:52:55.730Z,5.85
2017-12-30T08:55:23.278Z,5.78
2017-12-30T08:57:50.866Z,5.70
2017-12-30T09:00:18.583Z,5.80
2017-12-30T09:02:46.142Z,5.72
2017-12-30T09:05:13.686Z,5.82
2017-12-30T09:07:41.228Z,6.09
2017-12-30T09:10:08.833Z,6.18
2017-12-30T09:12:36.386Z,6.31
2017-12-30T09:15:04.190Z,6.37
2017-12-30T09:17:31.882Z,6.41
2017-12-30T09:19:59.627Z,6.23
2017-12-30T09:22:27.238Z,6.08
2017-12-30T09:24:54.804Z,6.17
2017-12-30T09:27:22.358Z,5.97
2017-12-30T09:29:49.918Z,6.06
2017-12-30T09:32:17.717Z,6.12
2017-12-30T09:34:45.538Z,6.24
2017-12-30T09:37:13.089Z,6.24
2017-12-30T09:39:40.652Z,6.09
2017-12-30T09:42:08.262Z,6.05
2017-12-30T09:44:35.846Z,5.92
2017-12-30T09:47:03.474Z,5.98
2017-12-30T09:49:31.162Z,6.04
2017-12-30T09:51:58.722Z,5.96
2017-12-30T09:54:26.453Z,5.83
2017-12-30T09:56:54.166Z,5.79
2017-12-30T09:59:21.807Z,5.89
2017-12-30T10:01:49.362Z,5.81
2017-12-30T10:04:17.041Z,6.03
2017-12-30T10:06:44.732Z,6.00
2017-12-30T10:09:12.587Z,6.05
2017-12-30T10:11:40.405Z,6.00
2017-12-30T10:14:08.036Z,5.86
2017-12-30T10:16:35.590Z,5.65
2017-12-30T10:19:03.211Z,5.63
2017-12-30T10:21:30.818Z,5.67
2017-12-30T10:23:58.437Z,5.65
2017-12-30T10:26:25.994Z,5.69
2017-12-30T10:28:53.702Z,5.72
2017-12-30T10:31:21.262Z,5.56
2017-12-30T10:33:48.825Z,5.43
2017-12-30T10:36:16.475Z,5.34
2017-12-30T10:38:44.034Z,5.30
2017-12-30T10:41:11.783Z,5.19
2017-12-30T10:43:39.379Z,5.21
2017-12-30T10:46:07.036Z,5.25
2017-12-30T10:48:34.880Z,5.17
2017-12-30T10:51:02.444Z,5.21
2017-12-30T10:53:30.102Z,5.22
2017-12-30T10:55:57.690Z,5.25
2017-12-30T10:58:25.262Z,5.33
2017-12-30T11:00:58.832Z,5.43
2017-12-30T11:03:26.389Z,5.52
2017-12-30T11:05:54.011Z,5.50
2017-12-30T11:08:21.577Z,5.42
2017-12-30T11:10:49.355Z,5.39
2017-12-30T11:13:16.977Z,5.35
2017-12-30T11:15:44.529Z,5.44
2017-12-30T11:18:12.309Z,5.44
2017-12-30T11:20:39.878Z,5.49
2017-12-30T11:23:07.629Z,5.53
2017-12-30T11:25:35.278Z,5.54
2017-12-30T11:28:02.849Z,5.52
2017-12-30T11:30:30.599Z,5.57
2017-12-30T11:32:58.215Z,5.60
2017-12-30T11:35:25.747Z,5.66
2017-12-30T11:37:53.363Z,5.67
2017-12-30T11:40:20.930Z,5.70
2017-12-30T11:42:48.585Z,5.77
2017-12-30T11:45:16.407Z,5.82
2017-12-30T11:47:44.017Z,5.83
2017-12-30T11:50:11.843Z,5.92
2017-12-30T11:52:39.453Z,6.04
2017-12-30T11:55:07.019Z,6.18
2017-12-30T11:57:34.711Z,6.13
2017-12-30T12:00:02.281Z,6.11
2017-12-30T12:02:29.914Z,6.01
2017-12-30T12:04:57.609Z,6.03
2017-12-30T12:07:26.272Z,6.07
2017-12-30T12:09:53.859Z,6.07
2017-12-30T12:12:21.609Z,6.03
2017-12-30T12:14:49.226Z,5.93
2017-12-30T12:17:17.045Z,5.93
2017-12-30T12:19:44.653Z,5.99
2017-12-30T12:22:12.330Z,6.06
2017-12-30T12:24:39.999Z,6.12
2017-12-30T12:27:07.645Z,6.14
2017-12-30T12:29:35.237Z,6.05
2017-12-30T12:32:02.953Z,5.99
2017-12-30T12:34:30.565Z,5.93
2017-12-30T12:36:58.133Z,5.94
2017-12-30T12:39:25.909Z,5.91
2017-12-30T12:41:53.725Z,5.88
2017-12-30T12:44:21.301Z,5.90
2017-12-30T12:46:48.884Z,5.88
2017-12-30T12:49:16.453Z,5.83
2017-12-30T12:51:44.082Z,5.78
2017-12-30T12:54:11.785Z,5.72
2017-12-30T12:56:39.499Z,5.68
2017-12-30T12:59:07.152Z,5.70
2017-12-30T13:01:34.777Z,5.65
2017-12-30T13:04:02.691Z,5.67
2017-12-30T13:06:30.246Z,5.70
2017-12-30T13:08:58.026Z,5.71
2017-12-30T13:11:25.602Z,5.71
2017-12-30T13:13:53.162Z,5.77
2017-12-30T13:16:20.978Z,5.75
2017-12-30T13:18:48.540Z,5.75
2017-12-30T13:21:16.287Z,5.77
2017-12-30T13:23:43.893Z,5.85
2017-12-30T13:26:12.187Z,5.89
2017-12-30T13:28:39.814Z,5.96
2017-12-30T13:31:07.406Z,6.04
2017-12-30T13:33:35.047Z,6.00
2017-12-30T13:36:02.651Z,5.97
2017-12-30T13:38:30.232Z,5.94
2017-12-30T13:40:57.844Z,5.97
2017-12-30T13:43:25.558Z,5.98
2017-12-30T13:45:53.396Z,5.95
2017-12-30T13:48:21.215Z,5.90
2017-12-30T13:50:48.823Z,5.90
2017-12-30T13:53:16.523Z,5.89
2017-12-30T13:55:44.095Z,5.92
2017-12-30T13:58:11.886Z,5.91
2017-12-30T14:00:39.454Z,5.92
2017-12-30T14:03:07.189Z,5.92
2017-12-30T14:05:34.749Z,5.90
2017-12-30T14:08:02.313Z,5.92
2017-12-30T14:10:30.041Z,5.91
2017-12-30T14:12:57.625Z,5.84
2017-12-30T14:15:25.415Z,5.87
2017-12-30T14:17:52.995Z,5.83
2017-12-30T14:20:20.666Z,5.75
2017-12-30T14:22:48.470Z,5.87
2017-12-30T14:25:16.020Z,5.91
2017-12-30T14:27:43.689Z,6.00
2017-12-30T14:30:11.261Z,6.16
2017-12-30T14:32:39.040Z,6.31
2017-12-30T14:35:06.662Z,6.65
2017-12-30T14:37:34.213Z,6.74
2017-12-30T14:40:01.788Z,6.63
2017-12-30T14:42:29.612Z,6.45
2017-12-30T14:44:57.206Z,6.26
2017-12-30T14:47:24.835Z,6.20
2017-12-30T14:49:52.401Z,6.13
2017-12-30T14:52:19.968Z,6.14
2017-12-30T14:54:47.588Z,6.10
2017-12-30T14:57:15.174Z,6.09
2017-12-30T14:59:42.862Z,6.08
2017-12-30T15:02:10.431Z,5.97
2017-12-30T15:04:38.013Z,5.88
2017-12-30T15:07:05.601Z,5.89
2017-12-30T15:09:33.412Z,5.83
2017-12-30T15:12:01.030Z,5.78
2017-12-30T15:14:28.614Z,5.70
2017-12-30T15:16:56.259Z,5.68
2017-12-30T15:19:23.835Z,5.67
2017-12-30T15:21:51.599Z,5.61
2017-12-30T15:24:19.216Z,5.58
2017-12-30T15:26:46.781Z,5.56
2017-12-30T15:29:14.453Z,5.46
2017-12-30T15:31:59.426Z,5.52
2017-12-30T15:34:27.079Z,5.44
2017-12-30T15:36:54.728Z,5.40
2017-12-30T15:39:22.302Z,5.42
2017-12-30T15:41:49.980Z,5.23
2017-12-30T15:44:17.611Z,5.34
2017-12-30T15:46:45.185Z,5.31
2017-12-30T15:49:12.806Z,5.06
2017-12-30T15:51:40.386Z,5.09
2017-12-30T15:54:08.002Z,5.06
2017-12-30T15:56:35.561Z,5.05
2017-12-30T15:59:03.121Z,4.98
2017-12-30T16:01:30.690Z,5.01
2017-12-30T16:03:58.261Z,4.94
2017-12-30T16:06:25.927Z,4.90
2017-12-30T16:08:53.498Z,4.88
2017-12-30T16:11:21.220Z,4.90
2017-12-30T16:13:49.037Z,4.88
2017-12-30T16:16:16.645Z,4.82
2017-12-30T16:18:44.266Z,4.76
2017-12-30T16:21:11.846Z,4.80
2017-12-30T16:23:39.420Z,4.81
2017-12-30T16:26:07.226Z,4.71
2017-12-30T16:28:34.847Z,4.78
2017-12-30T16:31:02.488Z,4.79
2017-12-30T16:33:30.280Z,4.87
2017-12-30T16:35:57.971Z,4.84
2017-12-30T16:38:25.549Z,4.83
2017-12-30T16:40:53.091Z,4.68
2017-12-30T16:43:20.730Z,4.58
2017-12-30T16:45:48.293Z,4.58
2017-12-30T16:48:15.990Z,4.54
2017-12-30T16:50:43.559Z,4.52
2017-12-30T16:53:11.117Z,4.53
2017-12-30T16:55:38.943Z,4.45
2017-12-30T16:58:06.574Z,4.53
2017-12-30T17:00:34.158Z,4.49
2017-12-30T17:03:01.816Z,4.58
2017-12-30T17:05:29.436Z,4.50
2017-12-30T17:07:57.148Z,4.55
2017-12-30T17:10:24.741Z,4.55
2017-12-30T17:12:52.377Z,4.47
2017-12-30T17:15:19.975Z,4.45
2017-12-30T17:17:47.606Z,4.35
2017-12-30T17:20:15.211Z,4.34
2017-12-30T17:22:42.804Z,4.24
2017-12-30T17:25:10.422Z,4.14
2017-12-30T17:27:38.003Z,4.07
2017-12-30T17:30:05.585Z,4.09
2017-12-30T17:32:33.209Z,4.08
2017-12-30T17:35:00.785Z,4.07
2017-12-30T17:37:28.607Z,4.05
2017-12-30T17:39:56.518Z,4.05
2017-12-30T17:42:24.156Z,4.13
2017-12-30T17:44:52.003Z,4.13
2017-12-30T17:47:19.634Z,4.09
2017-12-30T17:49:47.197Z,4.16
2017-12-30T17:52:14.957Z,4.18
2017-12-30T17:54:42.560Z,4.20
2017-12-30T17:57:10.205Z,4.22
2017-12-30T17:59:37.781Z,4.20
2017-12-30T18:02:05.393Z,4.21
2017-12-30T18:04:33.147Z,4.15
2017-12-30T18:07:00.714Z,4.18
2017-12-30T18:12:02.873Z,4.16
2017-12-30T18:14:30.433Z,4.17
2017-12-30T18:16:57.997Z,4.13
2017-12-30T18:19:25.781Z,4.11
2017-12-30T18:21:53.375Z,4.14
2017-12-30T18:24:21.019Z,4.15
2017-12-30T18:26:48.593Z,4.14
2017-12-30T18:29:16.158Z,4.15
2017-12-30T18:31:43.863Z,4.22
2017-12-30T18:34:11.478Z,4.34
2017-12-30T18:36:39.096Z,4.38
2017-12-30T18:39:06.721Z,4.29
2017-12-30T18:41:34.443Z,4.27
2017-12-30T18:44:02.259Z,4.29
2017-12-30T18:46:29.817Z,4.36
2017-12-30T18:48:57.486Z,4.39
2017-12-30T18:51:25.108Z,4.41
2017-12-30T18:53:52.682Z,4.32
2017-12-30T18:56:20.255Z,4.31
2017-12-30T18:58:47.858Z,4.35
2017-12-30T19:01:15.476Z,4.32
2017-12-30T19:03:43.170Z,4.35
2017-12-30T19:06:11.212Z,4.40
2017-12-30T19:08:38.850Z,4.42
2017-12-30T19:11:06.413Z,4.42
2017-12-30T19:13:34.027Z,4.48
2017-12-30T19:16:01.574Z,4.44
2017-12-30T19:18:29.157Z,4.41
2017-12-30T19:20:56.748Z,4.37
2017-12-30T19:23:24.313Z,4.38
2017-12-30T19:25:52.065Z,4.43
2017-12-30T19:28:19.786Z,4.49
2017-12-30T19:30:47.501Z,4.40
2017-12-30T19:33:15.066Z,4.46
2017-12-30T19:35:42.632Z,4.33
2017-12-30T19:38:10.272Z,4.28
2017-12-30T19:40:37.837Z,4.26
2017-12-30T19:43:05.490Z,4.28
2017-12-30T19:45:33.174Z,4.16
2017-12-30T19:48:00.770Z,4.30
2017-12-30T19:50:28.389Z,4.22
2017-12-30T19:52:56.163Z,4.13
2017-12-30T19:55:23.696Z,4.09
2017-12-30T19:57:51.261Z,4.03
2017-12-30T20:00:18.826Z,4.07
2017-12-30T20:02:46.516Z,3.98
2017-12-30T20:05:14.074Z,3.96
2017-12-30T20:07:41.638Z,3.93
2017-12-30T20:10:09.388Z,3.90
2017-12-30T20:12:36.950Z,3.86
2017-12-30T20:15:04.609Z,3.77
2017-12-30T20:17:32.332Z,3.74
2017-12-30T20:19:59.893Z,3.70
2017-12-30T20:22:27.569Z,3.61
2017-12-30T20:24:55.125Z,3.61
2017-12-30T20:27:22.810Z,3.64
2017-12-30T20:29:50.369Z,3.61
2017-12-30T20:32:17.929Z,3.58
2017-12-30T20:34:45.559Z,3.54
2017-12-30T20:37:13.124Z,3.51
2017-12-30T20:39:40.735Z,3.42
2017-12-30T20:42:08.334Z,3.32
2017-12-30T20:44:36.057Z,3.38
2017-12-30T20:47:03.838Z,3.38
2017-12-30T20:49:31.393Z,3.42
2017-12-30T20:51:59.005Z,3.33
2017-12-30T20:54:26.730Z,3.36
2017-12-30T20:56:55.126Z,3.27
2017-12-30T20:59:22.698Z,3.13
2017-12-30T21:01:50.263Z,3.00
2017-12-30T21:04:17.865Z,2.97
2017-12-30T21:06:45.422Z,2.99
2017-12-30T21:09:13.140Z,2.95
2017-12-30T21:11:40.718Z,2.87
2017-12-30T21:14:08.314Z,2.83
2017-12-30T21:16:35.994Z,2.77
2017-12-30T21:19:03.570Z,2.76
2017-12-30T21:21:31.212Z,2.79
2017-12-30T21:23:58.819Z,2.85
2017-12-30T21:26:26.438Z,2.83
2017-12-30T21:28:54.110Z,2.74
2017-12-30T21:31:21.666Z,2.74
2017-12-30T21:33:49.211Z,2.66
2017-12-30T21:36:17.020Z,2.63
2017-12-30T21:38:44.604Z,2.63
2017-12-30T21:41:12.218Z,2.54
2017-12-30T21:43:39.786Z,2.53
2017-12-30T21:46:07.590Z,2.45
2017-12-30T21:48:35.409Z,2.41
2017-12-30T21:51:02.973Z,2.37
2017-12-30T21:53:30.591Z,2.42
2017-12-30T21:55:58.221Z,2.50
2017-12-30T21:58:25.882Z,2.47
2017-12-30T22:00:53.446Z,2.46
2017-12-30T22:03:21.066Z,2.46
2017-12-30T22:05:48.755Z,2.39
2017-12-30T22:08:16.320Z,2.37
2017-12-30T22:10:43.880Z,2.37
2017-12-30T22:13:11.454Z,2.23
2017-12-30T22:15:39.026Z,2.39
2017-12-30T22:18:06.645Z,2.42
2017-12-30T22:20:34.197Z,2.46
2017-12-30T22:23:01.965Z,2.47
2017-12-30T22:25:29.529Z,2.47
2017-12-30T22:27:57.151Z,2.53
2017-12-30T22:30:24.858Z,2.54
2017-12-30T22:32:52.413Z,2.61
2017-12-30T22:35:20.028Z,2.63
2017-12-30T22:37:47.626Z,2.59
2017-12-30T22:40:15.188Z,2.60
2017-12-30T22:42:42.806Z,2.66
2017-12-30T22:45:10.430Z,2.65
2017-12-30T22:47:37.990Z,2.63
2017-12-30T22:50:05.759Z,2.76
2017-12-30T22:52:33.368Z,2.81
2017-12-30T22:55:01.031Z,2.88
2017-12-30T22:57:28.782Z,2.88
2017-12-30T22:59:56.354Z,2.84
2017-12-30T23:02:23.917Z,2.90
2017-12-30T23:04:51.469Z,2.91
2017-12-30T23:07:19.131Z,2.88
2017-12-30T23:09:46.681Z,2.92
2017-12-30T23:12:14.280Z,2.90
2017-12-30T23:14:41.843Z,2.85
2017-12-30T23:17:09.397Z,2.81
2017-12-30T23:19:37.019Z,2.80
2017-12-30T23:22:04.581Z,2.84
2017-12-30T23:24:32.145Z,2.75
2017-12-30T23:26:59.710Z,2.77
2017-12-30T23:29:27.282Z,2.64
2017-12-30T23:31:54.955Z,2.62
2017-12-30T23:34:22.518Z,2.51
2017-12-30T23:36:50.077Z,2.36
2017-12-30T23:39:17.650Z,2.30
2017-12-30T23:41:45.266Z,2.23
2017-12-30T23:44:12.895Z,2.22
2017-12-30T23:46:40.450Z,2.12
2017-12-30T23:49:08.096Z,2.11
2017-12-30T23:51:35.750Z,2.07
2017-12-30T23:54:03.312Z,2.06
2017-12-30T23:56:30.985Z,2.11
2017-12-30T23:58:58.720Z,2.15
